createdAt,value
2023-12-24T00:02:12.022Z,77.50
2023-12-24T00:04:38.975Z,78.00
2023-12-24T00:07:06.020Z,78.40
2023-12-24T00:09:33.005Z,78.90
2023-12-24T00:11:59.991Z,79.00
2023-12-24T00:14:26.958Z,79.50
2023-12-24T00:16:53.985Z,79.20
2023-12-24T00:19:21.046Z,79.00
2023-12-24T00:21:48.033Z,78.70
2023-12-24T00:24:14.999Z,79.10
2023-12-24T00:26:42.030Z,78.80
2023-12-24T00:29:09.156Z,78.20
2023-12-24T00:31:36.255Z,78.50
2023-12-24T00:34:04.156Z,79.40
2023-12-24T00:36:31.131Z,79.80
2023-12-24T00:38:58.155Z,79.70
2023-12-24T00:41:25.701Z,79.80
2023-12-24T00:43:53.327Z,80.10
2023-12-24T00:46:20.202Z,80.00
2023-12-24T00:48:47.326Z,80.40
2023-12-24T00:51:14.385Z,80.80
2023-12-24T00:53:41.427Z,81.00
2023-12-24T00:56:08.545Z,80.60
2023-12-24T00:58:35.453Z,80.70
2023-12-24T01:01:02.407Z,80.30
2023-12-24T01:03:29.632Z,80.40
2023-12-24T01:05:56.736Z,80.90
2023-12-24T01:08:23.872Z,80.70
2023-12-24T01:10:53.719Z,80.10
2023-12-24T01:13:21.443Z,79.40
2023-12-24T01:15:49.546Z,79.10
2023-12-24T01:18:17.086Z,78.90
2023-12-24T01:20:44.741Z,78.70
2023-12-24T01:23:11.710Z,78.30
2023-12-24T01:25:38.882Z,77.40
2023-12-24T01:28:06.157Z,76.80
2023-12-24T01:30:33.268Z,76.20
2023-12-24T01:33:01.122Z,76.30
2023-12-24T01:35:28.328Z,77.80
2023-12-24T01:37:55.613Z,78.10
2023-12-24T01:40:22.639Z,77.80
2023-12-24T01:42:50.380Z,78.80
2023-12-24T01:45:17.641Z,79.20
2023-12-24T01:47:50.887Z,79.30
2023-12-24T01:50:20.553Z,79.80
2023-12-24T01:52:47.495Z,80.00
2023-12-24T01:55:14.589Z,79.90
2023-12-24T01:57:41.566Z,80.40
2023-12-24T02:00:09.189Z,80.70
2023-12-24T02:02:36.745Z,80.60
2023-12-24T02:05:04.085Z,80.90
2023-12-24T02:07:35.591Z,80.90
2023-12-24T02:10:02.927Z,81.10
2023-12-24T02:12:31.928Z,80.90
2023-12-24T02:14:58.842Z,81.00
2023-12-24T02:17:27.240Z,80.50
2023-12-24T02:19:54.316Z,80.30
2023-12-24T02:22:21.990Z,80.30
2023-12-24T02:24:49.085Z,80.60
2023-12-24T02:27:25.299Z,80.40
2023-12-24T02:29:57.618Z,80.30
2023-12-24T02:32:26.967Z,80.30
2023-12-24T02:34:57.261Z,80.30
2023-12-24T02:37:24.739Z,80.20
2023-12-24T02:39:51.716Z,79.30
2023-12-24T02:42:19.216Z,78.50
2023-12-24T02:44:46.178Z,78.00
2023-12-24T02:47:13.115Z,78.20
2023-12-24T02:49:40.105Z,78.40
2023-12-24T02:52:07.172Z,78.30
2023-12-24T02:54:34.078Z,78.10
2023-12-24T02:57:01.119Z,78.00
2023-12-24T02:59:29.382Z,78.20
2023-12-24T03:01:56.872Z,77.80
2023-12-24T03:04:23.757Z,77.80
2023-12-24T03:06:50.717Z,78.00
2023-12-24T03:09:17.762Z,78.30
2023-12-24T03:11:44.860Z,78.80
2023-12-24T03:14:11.903Z,79.90
2023-12-24T03:16:39.076Z,80.60
2023-12-24T03:19:06.011Z,80.90
2023-12-24T03:21:33.023Z,80.80
2023-12-24T03:24:00.085Z,80.80
2023-12-24T03:26:27.024Z,80.20
2023-12-24T03:28:54.135Z,79.90
2023-12-24T03:31:21.738Z,79.90
2023-12-24T03:33:48.895Z,80.00
2023-12-24T03:36:15.881Z,80.00
2023-12-24T03:38:43.833Z,80.30
2023-12-24T03:41:10.703Z,81.00
2023-12-24T03:43:37.756Z,81.00
2023-12-24T03:46:04.804Z,80.90
2023-12-24T03:48:33.214Z,80.20
2023-12-24T03:51:00.295Z,80.10
2023-12-24T03:53:27.348Z,80.00
2023-12-24T03:55:54.253Z,80.00
2023-12-24T03:58:21.336Z,79.40
2023-12-24T04:00:48.426Z,79.30
2023-12-24T04:03:15.377Z,78.70
2023-12-24T04:05:42.466Z,78.30
2023-12-24T04:08:09.995Z,78.20
2023-12-24T04:10:42.832Z,78.20
2023-12-24T04:13:13.417Z,78.40
2023-12-24T04:15:40.453Z,78.40
2023-12-24T04:18:07.728Z,78.60
2023-12-24T04:20:34.983Z,78.30
2023-12-24T04:23:01.946Z,78.20
2023-12-24T04:25:28.949Z,77.90
2023-12-24T04:27:55.885Z,77.30
2023-12-24T04:30:22.903Z,76.90
2023-12-24T04:32:50.009Z,76.40
2023-12-24T04:35:17.157Z,76.00
2023-12-24T04:37:44.133Z,75.20
2023-12-24T04:40:12.905Z,74.80
2023-12-24T04:42:40.440Z,74.60
2023-12-24T04:45:07.980Z,74.20
2023-12-24T04:47:35.081Z,74.10
2023-12-24T04:50:02.210Z,74.30
2023-12-24T04:52:29.332Z,74.20
2023-12-24T04:54:56.306Z,74.70
2023-12-24T04:57:23.210Z,74.60
2023-12-24T04:59:50.107Z,75.30
2023-12-24T05:02:17.160Z,75.20
2023-12-24T05:04:44.249Z,75.70
2023-12-24T05:07:11.292Z,75.30
2023-12-24T05:09:42.504Z,75.40
2023-12-24T05:12:10.465Z,75.60
2023-12-24T05:14:37.402Z,76.10
2023-12-24T05:17:04.923Z,76.60
2023-12-24T05:19:32.045Z,77.20
2023-12-24T05:21:59.115Z,77.90
2023-12-24T05:24:26.541Z,78.10
2023-12-24T05:26:53.583Z,79.00
2023-12-24T05:29:20.515Z,79.40
2023-12-24T05:31:47.713Z,80.20
2023-12-24T05:34:14.694Z,81.30
2023-12-24T05:36:41.698Z,82.20
2023-12-24T05:39:12.189Z,82.50
2023-12-24T05:41:39.175Z,82.50
2023-12-24T05:44:06.264Z,82.10
2023-12-24T05:46:33.313Z,82.00
2023-12-24T05:49:00.275Z,82.40
2023-12-24T05:51:27.269Z,83.40
2023-12-24T05:53:54.182Z,83.70
2023-12-24T05:56:21.129Z,83.50
2023-12-24T05:58:48.035Z,83.10
2023-12-24T06:01:14.987Z,82.60
2023-12-24T06:03:43.089Z,83.50
2023-12-24T06:06:10.333Z,83.80
2023-12-24T06:08:37.476Z,83.10
2023-12-24T06:11:04.628Z,83.10
2023-12-24T06:13:31.600Z,82.90
2023-12-24T06:15:58.547Z,85.50
2023-12-24T06:18:25.677Z,86.40
2023-12-24T06:20:52.887Z,86.40
2023-12-24T06:23:19.883Z,86.20
2023-12-24T06:25:46.777Z,86.40
2023-12-24T06:28:13.777Z,86.60
2023-12-24T06:30:40.664Z,86.80
2023-12-24T06:33:09.073Z,86.60
2023-12-24T06:35:36.066Z,86.40
2023-12-24T06:38:03.232Z,86.30
2023-12-24T06:40:30.094Z,86.20
2023-12-24T06:42:56.997Z,86.80
2023-12-24T06:45:23.996Z,86.90
2023-12-24T06:47:51.042Z,86.90
2023-12-24T06:50:19.065Z,86.00
2023-12-24T06:52:46.193Z,88.10
2023-12-24T06:55:13.346Z,88.10
2023-12-24T06:57:40.317Z,88.00
2023-12-24T07:00:07.872Z,88.20
2023-12-24T07:02:34.935Z,87.90
2023-12-24T07:05:02.352Z,87.80
2023-12-24T07:07:29.518Z,88.20
2023-12-24T07:09:57.168Z,88.20
2023-12-24T07:12:25.197Z,89.10
2023-12-24T07:14:52.275Z,89.80
2023-12-24T07:17:19.415Z,88.40
2023-12-24T07:19:46.468Z,88.80
2023-12-24T07:22:17.097Z,89.00
2023-12-24T07:24:43.958Z,89.50
2023-12-24T07:27:11.002Z,89.40
2023-12-24T07:29:38.323Z,89.20
2023-12-24T07:32:05.814Z,89.70
2023-12-24T07:34:32.732Z,89.80
2023-12-24T07:36:59.657Z,88.70
2023-12-24T07:39:26.787Z,88.80
2023-12-24T07:41:56.758Z,89.80
2023-12-24T07:44:23.755Z,90.40
2023-12-24T07:46:50.640Z,91.60
2023-12-24T07:49:17.585Z,91.50
2023-12-24T07:51:44.557Z,90.50
2023-12-24T07:54:11.462Z,90.30
2023-12-24T07:56:38.380Z,91.00
2023-12-24T07:59:05.416Z,92.50
2023-12-24T08:01:32.490Z,93.50
2023-12-24T08:03:59.395Z,93.80
2023-12-24T08:06:28.803Z,93.60
2023-12-24T08:08:57.759Z,93.30
2023-12-24T08:11:25.005Z,92.40
2023-12-24T08:13:52.135Z,91.20
2023-12-24T08:16:19.069Z,90.90
2023-12-24T08:18:46.221Z,91.50
2023-12-24T08:21:13.383Z,91.90
2023-12-24T08:23:40.681Z,91.80
2023-12-24T08:26:07.712Z,91.90
2023-12-24T08:28:34.715Z,91.90
2023-12-24T08:31:02.136Z,91.60
2023-12-24T08:33:29.489Z,91.40
2023-12-24T08:35:56.570Z,91.20
2023-12-24T08:38:23.529Z,91.20
2023-12-24T08:40:50.580Z,91.00
2023-12-24T08:43:17.485Z,90.80
2023-12-24T08:45:44.374Z,90.50
2023-12-24T08:48:11.487Z,89.80
2023-12-24T08:50:38.672Z,89.40
2023-12-24T08:53:06.176Z,88.20
2023-12-24T08:55:33.160Z,87.60
2023-12-24T08:58:00.467Z,87.10
2023-12-24T09:00:27.470Z,86.80
2023-12-24T09:02:54.667Z,87.00
2023-12-24T09:05:22.041Z,86.80
2023-12-24T09:07:49.009Z,87.00
2023-12-24T09:10:15.903Z,87.10
2023-12-24T09:12:42.937Z,86.30
2023-12-24T09:15:10.356Z,85.80
2023-12-24T09:17:37.356Z,85.30
2023-12-24T09:20:06.958Z,84.10
2023-12-24T09:22:34.424Z,84.30
2023-12-24T09:25:01.638Z,81.90
2023-12-24T09:27:28.944Z,82.40
2023-12-24T09:29:55.891Z,82.40
2023-12-24T09:32:22.784Z,81.20
2023-12-24T09:34:49.744Z,79.00
2023-12-24T09:37:16.743Z,75.10
2023-12-24T09:39:44.775Z,71.10
2023-12-24T09:42:11.808Z,69.30
2023-12-24T09:44:38.734Z,68.20
2023-12-24T09:47:05.928Z,67.30
2023-12-24T09:49:32.942Z,64.20
2023-12-24T09:52:01.279Z,62.30
2023-12-24T09:54:28.322Z,64.40
2023-12-24T09:56:57.016Z,65.00
2023-12-24T09:59:23.955Z,65.60
2023-12-24T10:01:51.102Z,63.60
2023-12-24T10:04:18.038Z,61.50
2023-12-24T10:06:58.685Z,59.90
2023-12-24T10:09:51.365Z,58.00
2023-12-24T10:12:20.092Z,56.40
2023-12-24T10:15:05.656Z,52.50
2023-12-24T10:17:34.352Z,50.60
2023-12-24T10:20:10.643Z,52.70
2023-12-24T10:22:37.908Z,52.20
2023-12-24T10:25:07.227Z,51.30
2023-12-24T10:27:35.858Z,50.30
2023-12-24T10:30:14.734Z,50.90
2023-12-24T10:32:43.904Z,52.10
2023-12-24T10:35:11.571Z,54.20
2023-12-24T10:37:38.688Z,54.00
2023-12-24T10:40:10.747Z,53.00
2023-12-24T10:42:41.663Z,55.70
2023-12-24T10:45:10.452Z,56.40
2023-12-24T10:47:37.871Z,57.40
2023-12-24T10:50:06.235Z,56.60
2023-12-24T10:52:33.353Z,56.80
2023-12-24T10:55:01.928Z,57.40
2023-12-24T10:57:41.924Z,58.30
2023-12-24T11:00:11.899Z,58.40
2023-12-24T11:02:39.262Z,57.20
2023-12-24T11:05:07.261Z,58.10
2023-12-24T11:07:49.469Z,59.00
2023-12-24T11:10:40.332Z,59.70
2023-12-24T11:13:13.256Z,60.90
2023-12-24T11:15:43.028Z,61.70
2023-12-24T11:18:11.407Z,61.40
2023-12-24T11:20:42.926Z,61.40
2023-12-24T11:23:10.768Z,63.10
2023-12-24T11:25:45.921Z,63.70
2023-12-24T11:28:24.448Z,64.10
2023-12-24T11:30:51.779Z,63.90
2023-12-24T11:33:46.911Z,61.60
2023-12-24T11:36:15.733Z,61.70
2023-12-24T11:38:43.523Z,62.30
2023-12-24T11:41:21.335Z,62.60
2023-12-24T11:44:01.982Z,62.50
2023-12-24T11:46:30.788Z,59.70
2023-12-24T11:49:04.332Z,58.50
2023-12-24T11:51:33.219Z,59.00
2023-12-24T11:54:05.085Z,57.80
2023-12-24T11:56:33.616Z,57.90
2023-12-24T11:59:03.087Z,57.80
2023-12-24T12:01:38.714Z,56.70
2023-12-24T12:04:06.988Z,56.30
2023-12-24T12:06:36.116Z,57.40
2023-12-24T12:09:07.861Z,58.30
2023-12-24T12:11:35.319Z,57.80
2023-12-24T12:14:05.700Z,59.20
2023-12-24T12:16:32.879Z,57.80
2023-12-24T12:19:00.128Z,57.60
2023-12-24T12:21:27.236Z,57.70
2023-12-24T12:23:54.478Z,54.60
2023-12-24T12:26:21.579Z,52.30
2023-12-24T12:28:48.525Z,54.00
2023-12-24T12:31:15.470Z,54.20
2023-12-24T12:33:42.952Z,51.80
2023-12-24T12:36:10.703Z,48.60
2023-12-24T12:38:37.654Z,45.90
2023-12-24T12:41:05.525Z,45.40
2023-12-24T12:43:33.098Z,45.90
2023-12-24T12:46:00.051Z,46.80
2023-12-24T12:48:27.282Z,46.70
2023-12-24T12:50:54.505Z,46.10
2023-12-24T12:53:26.414Z,44.00
2023-12-24T12:56:08.314Z,41.90
2023-12-24T12:58:35.521Z,41.70
2023-12-24T13:01:02.924Z,43.00
2023-12-24T13:03:30.054Z,45.90
2023-12-24T13:05:58.824Z,48.00
2023-12-24T13:08:26.739Z,47.90
2023-12-24T13:10:53.830Z,47.40
2023-12-24T13:13:25.345Z,46.10
2023-12-24T13:16:08.817Z,46.50
2023-12-24T13:18:37.127Z,45.10
2023-12-24T13:21:05.962Z,44.50
2023-12-24T13:23:33.425Z,44.10
2023-12-24T13:26:04.562Z,44.20
2023-12-24T13:28:31.809Z,43.40
2023-12-24T13:30:58.807Z,44.30
2023-12-24T13:33:26.055Z,44.60
2023-12-24T13:35:53.025Z,45.20
2023-12-24T13:38:21.875Z,44.80
2023-12-24T13:40:49.118Z,42.80
2023-12-24T13:43:16.628Z,43.20
2023-12-24T13:45:43.752Z,44.00
2023-12-24T13:48:13.095Z,45.20
2023-12-24T13:50:42.627Z,44.20
2023-12-24T13:53:19.301Z,43.60
2023-12-24T13:55:58.425Z,43.60
2023-12-24T13:58:25.810Z,44.50
2023-12-24T14:00:52.893Z,46.30
2023-12-24T14:03:25.461Z,47.50
2023-12-24T14:05:52.886Z,47.80
2023-12-24T14:08:22.488Z,47.10
2023-12-24T14:10:50.260Z,46.70
2023-12-24T14:13:17.405Z,47.00
2023-12-24T14:15:44.386Z,46.90
2023-12-24T14:18:11.540Z,47.50
2023-12-24T14:20:39.319Z,48.60
2023-12-24T14:23:06.335Z,49.30
2023-12-24T14:25:33.282Z,49.60
2023-12-24T14:28:00.221Z,50.80
2023-12-24T14:30:27.104Z,51.40
2023-12-24T14:32:55.080Z,52.30
2023-12-24T14:35:22.300Z,53.10
2023-12-24T14:37:49.338Z,55.20
2023-12-24T14:40:16.776Z,57.20
2023-12-24T14:42:43.866Z,58.20
2023-12-24T14:45:10.864Z,59.50
2023-12-24T14:47:38.196Z,59.70
2023-12-24T14:50:05.899Z,59.80
2023-12-24T14:52:32.958Z,59.70
2023-12-24T14:55:00.820Z,60.00
2023-12-24T14:57:29.941Z,61.00
2023-12-24T14:59:57.090Z,61.70
2023-12-24T15:02:29.610Z,61.60
2023-12-24T15:04:57.143Z,62.30
2023-12-24T15:07:26.241Z,62.70
2023-12-24T15:09:53.788Z,62.00
2023-12-24T15:12:21.411Z,61.60
2023-12-24T15:14:49.110Z,61.60
2023-12-24T15:17:17.514Z,61.30
2023-12-24T15:19:45.938Z,61.90
2023-12-24T15:22:13.656Z,62.80
2023-12-24T15:24:41.153Z,63.60
2023-12-24T15:27:08.419Z,64.70
2023-12-24T15:29:37.148Z,65.30
2023-12-24T15:32:05.982Z,65.40
2023-12-24T15:34:32.941Z,65.70
2023-12-24T15:37:01.048Z,66.00
2023-12-24T15:39:28.149Z,66.50
2023-12-24T15:41:55.223Z,67.00
2023-12-24T15:44:22.370Z,67.60
2023-12-24T15:46:50.162Z,68.20
2023-12-24T15:49:17.780Z,68.40
2023-12-24T15:51:45.156Z,68.80
2023-12-24T15:54:12.376Z,69.00
2023-12-24T15:56:41.099Z,68.80
2023-12-24T15:59:09.589Z,68.80
2023-12-24T16:01:47.184Z,69.20
2023-12-24T16:04:14.615Z,69.10
2023-12-24T16:06:43.801Z,69.30
2023-12-24T16:09:11.015Z,69.70
2023-12-24T16:11:39.647Z,69.40
2023-12-24T16:14:09.784Z,69.60
2023-12-24T16:16:36.833Z,69.80
2023-12-24T16:19:04.468Z,70.20
2023-12-24T16:21:37.265Z,70.10
2023-12-24T16:24:06.717Z,70.20
2023-12-24T16:26:35.782Z,70.30
2023-12-24T16:29:02.990Z,70.40
2023-12-24T16:31:30.933Z,70.30
2023-12-24T16:33:59.182Z,69.90
2023-12-24T16:36:26.347Z,69.90
2023-12-24T16:38:55.044Z,70.00
2023-12-24T16:41:23.572Z,70.00
2023-12-24T16:43:50.629Z,70.10
2023-12-24T16:46:17.818Z,70.20
2023-12-24T16:48:44.979Z,70.20
2023-12-24T16:51:22.736Z,70.70
2023-12-24T16:53:49.896Z,70.90
2023-12-24T16:56:18.076Z,71.20
2023-12-24T16:58:47.770Z,71.10
2023-12-24T17:01:14.968Z,71.70
2023-12-24T17:03:42.155Z,72.30
2023-12-24T17:06:10.599Z,72.90
2023-12-24T17:08:39.269Z,73.40
2023-12-24T17:11:07.933Z,73.20
2023-12-24T17:13:34.952Z,73.50
2023-12-24T17:16:06.150Z,73.90
2023-12-24T17:18:33.777Z,74.10
2023-12-24T17:21:01.012Z,74.20
2023-12-24T17:23:28.208Z,74.40
2023-12-24T17:25:56.723Z,74.60
2023-12-24T17:28:23.690Z,75.20
2023-12-24T17:30:50.619Z,75.20
2023-12-24T17:33:19.746Z,75.30
2023-12-24T17:35:46.884Z,75.80
2023-12-24T17:38:15.957Z,75.80
2023-12-24T17:40:42.873Z,74.90
2023-12-24T17:43:12.210Z,75.40
2023-12-24T17:45:41.069Z,76.50
2023-12-24T17:48:16.985Z,77.00
2023-12-24T17:50:47.358Z,77.80
2023-12-24T17:53:14.704Z,77.10
2023-12-24T17:55:42.362Z,74.20
2023-12-24T17:58:09.770Z,75.10
2023-12-24T18:00:36.599Z,76.30
2023-12-24T18:03:04.192Z,76.60
2023-12-24T18:05:31.368Z,77.30
2023-12-24T18:07:58.660Z,77.00
2023-12-24T18:10:25.579Z,78.80
2023-12-24T18:12:52.978Z,78.30
2023-12-24T18:15:20.189Z,78.90
2023-12-24T18:17:48.190Z,79.00
2023-12-24T18:20:15.569Z,79.50
2023-12-24T18:22:42.888Z,80.40
2023-12-24T18:25:09.895Z,80.80
2023-12-24T18:27:36.871Z,79.60
2023-12-24T18:30:04.068Z,79.90
2023-12-24T18:32:31.111Z,79.40
2023-12-24T18:34:58.102Z,80.50
2023-12-24T18:37:25.133Z,81.40
2023-12-24T18:39:52.039Z,80.40
2023-12-24T18:42:19.043Z,79.20
2023-12-24T18:44:46.041Z,79.70
2023-12-24T18:47:12.910Z,80.20
2023-12-24T18:49:42.738Z,78.60
2023-12-24T18:52:09.654Z,79.40
2023-12-24T18:54:36.614Z,79.30
2023-12-24T18:57:04.289Z,79.80
2023-12-24T18:59:31.352Z,80.50
2023-12-24T19:01:58.244Z,80.70
2023-12-24T19:04:25.148Z,81.40
2023-12-24T19:06:52.509Z,81.50
2023-12-24T19:09:19.416Z,81.40
2023-12-24T19:11:46.305Z,82.00
2023-12-24T19:14:13.773Z,82.00
2023-12-24T19:16:40.886Z,81.80
2023-12-24T19:19:08.042Z,81.80
2023-12-24T19:21:35.078Z,81.70
2023-12-24T19:24:01.938Z,82.80
2023-12-24T19:26:28.974Z,83.00
2023-12-24T19:29:03.322Z,83.20
2023-12-24T19:31:36.093Z,82.60
2023-12-24T19:34:03.481Z,82.40
2023-12-24T19:36:30.506Z,82.50
2023-12-24T19:38:57.401Z,81.80
2023-12-24T19:41:24.384Z,82.20
2023-12-24T19:43:51.372Z,82.80
2023-12-24T19:46:18.619Z,83.00
2023-12-24T19:48:47.049Z,83.30
2023-12-24T19:51:14.102Z,83.60
2023-12-24T19:53:41.042Z,83.30
2023-12-24T19:56:08.167Z,83.20
2023-12-24T19:58:35.185Z,83.60
2023-12-24T20:01:02.844Z,83.80
2023-12-24T20:03:29.862Z,82.60
2023-12-24T20:05:56.995Z,82.40
2023-12-24T20:08:24.003Z,82.90
2023-12-24T20:10:51.034Z,83.30
2023-12-24T20:13:19.033Z,83.50
2023-12-24T20:15:45.984Z,83.20
2023-12-24T20:18:13.470Z,82.80
2023-12-24T20:20:40.595Z,83.30
2023-12-24T20:23:08.077Z,83.00
2023-12-24T20:25:35.036Z,82.80
2023-12-24T20:28:04.478Z,83.60
2023-12-24T20:30:32.970Z,83.70
2023-12-24T20:33:01.010Z,83.70
2023-12-24T20:35:28.318Z,83.80
2023-12-24T20:37:55.301Z,84.40
2023-12-24T20:40:22.182Z,83.30
2023-12-24T20:42:49.174Z,84.10
2023-12-24T20:45:17.387Z,84.10
2023-12-24T20:47:44.408Z,85.30
2023-12-24T20:50:11.602Z,85.20
2023-12-24T20:52:38.571Z,86.30
2023-12-24T20:55:06.013Z,87.10
2023-12-24T20:57:33.017Z,89.20
2023-12-24T20:59:59.914Z,89.90
2023-12-24T21:02:33.680Z,87.80
2023-12-24T21:05:04.288Z,87.60
2023-12-24T21:07:31.385Z,87.60
2023-12-24T21:09:58.371Z,88.40
2023-12-24T21:12:25.691Z,88.30
2023-12-24T21:14:52.606Z,89.00
2023-12-24T21:17:19.921Z,87.40
2023-12-24T21:19:47.413Z,86.50
2023-12-24T21:22:14.688Z,86.90
2023-12-24T21:24:41.590Z,87.20
2023-12-24T21:27:08.510Z,86.10
2023-12-24T21:29:35.436Z,85.80
2023-12-24T21:32:04.164Z,85.20
2023-12-24T21:34:31.293Z,85.40
2023-12-24T21:36:58.277Z,85.70
2023-12-24T21:39:25.223Z,86.10
2023-12-24T21:41:52.728Z,86.00
2023-12-24T21:44:19.688Z,87.90
2023-12-24T21:46:46.602Z,88.40
2023-12-24T21:49:13.859Z,88.10
2023-12-24T21:51:42.248Z,87.90
2023-12-24T21:54:09.267Z,87.60
2023-12-24T21:56:36.422Z,87.40
2023-12-24T21:59:05.146Z,87.80
2023-12-24T22:01:33.388Z,88.60
2023-12-24T22:04:00.935Z,87.90
2023-12-24T22:06:28.967Z,87.20
2023-12-24T22:08:56.104Z,86.60
2023-12-24T22:11:23.285Z,86.10
2023-12-24T22:13:50.353Z,84.90
2023-12-24T22:16:18.403Z,85.30
2023-12-24T22:18:45.770Z,85.50
2023-12-24T22:21:14.486Z,86.30
2023-12-24T22:23:41.468Z,86.80
2023-12-24T22:26:10.529Z,87.50
2023-12-24T22:28:37.530Z,89.40
2023-12-24T22:31:07.697Z,87.90
2023-12-24T22:33:35.349Z,88.10
2023-12-24T22:36:02.463Z,88.30
2023-12-24T22:38:29.577Z,88.80
2023-12-24T22:40:56.458Z,88.40
2023-12-24T22:43:23.459Z,88.40
2023-12-24T22:45:52.450Z,88.10
2023-12-24T22:48:20.142Z,88.10
2023-12-24T22:50:47.429Z,88.00
2023-12-24T22:53:15.133Z,88.20
2023-12-24T22:55:42.435Z,88.10
2023-12-24T22:58:09.475Z,86.90
2023-12-24T23:00:36.523Z,86.40
2023-12-24T23:03:03.940Z,86.40
2023-12-24T23:05:30.886Z,86.80
2023-12-24T23:07:58.090Z,86.60
2023-12-24T23:10:25.391Z,86.70
2023-12-24T23:12:52.489Z,86.50
2023-12-24T23:15:19.669Z,86.80
2023-12-24T23:17:46.786Z,87.30
2023-12-24T23:20:14.110Z,87.30
2023-12-24T23:22:41.074Z,88.80
2023-12-24T23:25:08.355Z,88.80
2023-12-24T23:27:35.263Z,89.00
2023-12-24T23:30:02.604Z,90.10
2023-12-24T23:32:29.717Z,89.50
2023-12-24T23:34:56.761Z,89.30
2023-12-24T23:37:23.793Z,89.80
2023-12-24T23:39:50.706Z,90.00
2023-12-24T23:42:17.732Z,94.20
2023-12-24T23:44:44.647Z,97.00
2023-12-24T23:47:11.652Z,94.20
2023-12-24T23:49:38.570Z,93.00
2023-12-24T23:52:05.680Z,92.30
2023-12-24T23:54:32.692Z,92.40
2023-12-24T23:56:59.670Z,91.60
2023-12-24T23:59:26.727Z,90.80
